Time;durP1;ratioP1;P1;durP2;ratioP2;P2;SDS_P1;SDS_P2;PMS_P1;PMS_P2;Temp;Humidity;BMP_temperature;BMP_pressure;BME280_temperature;BME280_humidity;BME280_pressure;Samples;Min_cycle;Max_cycle;Signal;HPM_P1;HPM_P2
2022/09/21 00:01:58;;;;;;;7.12;2.47;;;;;;;10.95;67.34;98961.91;4485523;32;20240;-87
2022/09/21 00:04:23;;;;;;;8.95;2.87;;;;;;;11.43;65.65;98961.09;4486585;31;20120;-87
2022/09/21 00:06:49;;;;;;;7.62;2.70;;;;;;;10.94;66.78;98964.63;4486544;31;20084;-87
2022/09/21 00:09:14;;;;;;;8.10;2.75;;;;;;;11.11;66.43;98969.00;4485395;32;20114;-87
2022/09/21 00:11:40;;;;;;;7.47;2.62;;;;;;;11.15;66.29;98966.09;4486496;31;20140;-87
2022/09/21 00:14:09;;;;;;;8.63;3.10;;;;;;;11.41;65.67;98958.53;4485982;31;20088;-87
2022/09/21 00:16:35;;;;;;;9.90;2.70;;;;;;;11.21;66.41;98962.28;4485297;32;20450;-87
2022/09/21 00:19:01;;;;;;;7.55;2.62;;;;;;;11.25;65.81;98961.16;4486435;31;20114;-87
2022/09/21 00:21:27;;;;;;;7.53;2.60;;;;;;;11.43;65.51;98961.94;4486245;31;20436;-87
2022/09/21 00:23:53;;;;;;;8.43;2.70;;;;;;;11.80;64.16;98954.59;4486402;31;20440;-87
2022/09/21 00:26:24;;;;;;;7.82;2.80;;;;;;;11.66;64.62;98959.81;4486363;31;20415;-87
2022/09/21 00:28:54;;;;;;;7.15;2.62;;;;;;;11.47;65.06;98960.81;4484983;32;20106;-87
2022/09/21 00:31:20;;;;;;;9.10;2.78;;;;;;;11.70;63.87;98948.97;4485012;32;20108;-87
2022/09/21 00:33:45;;;;;;;7.07;2.42;;;;;;;11.38;64.77;98959.56;4484958;32;20092;-87
2022/09/21 00:36:16;;;;;;;6.82;2.50;;;;;;;11.41;64.62;98962.03;4486180;32;20088;-87
2022/09/21 00:38:41;;;;;;;7.40;2.60;;;;;;;11.66;63.77;98962.44;4486191;31;20098;-87
2022/09/21 00:41:07;;;;;;;7.53;2.47;;;;;;;11.29;64.67;98954.78;4484738;32;20372;-87
2022/09/21 00:43:41;;;;;;;7.20;2.40;;;;;;;11.57;63.79;98962.03;4485057;32;20476;-87
2022/09/21 00:46:36;;;;;;;6.47;2.28;;;;;;;11.72;62.94;98959.47;4486065;31;20349;-87
2022/09/21 00:49:02;;;;;;;7.00;2.58;;;;;;;11.74;63.18;98960.22;4471338;32;20151;-89
2022/09/21 00:51:28;;;;;;;6.30;2.25;;;;;;;11.94;62.43;98964.41;4485901;31;20406;-89
2022/09/21 00:53:57;;;;;;;7.05;2.50;;;;;;;11.88;62.56;98962.94;4484660;32;20124;-89
2022/09/21 00:56:23;;;;;;;6.05;2.40;;;;;;;11.74;62.75;98962.88;4471563;32;20169;-88
2022/09/21 00:58:50;;;;;;;8.35;2.72;;;;;;;11.89;62.49;98967.31;4485855;31;20107;-89
2022/09/21 01:01:17;;;;;;;7.20;2.67;;;;;;;11.73;63.14;98969.09;4485892;32;20126;-89
2022/09/21 01:03:46;;;;;;;7.75;2.80;;;;;;;11.54;63.73;98977.19;4487107;32;20104;-88
2022/09/21 01:06:12;;;;;;;7.62;2.75;;;;;;;11.66;63.07;98971.22;4486960;32;20114;-88
2022/09/21 01:08:40;;;;;;;6.95;2.60;;;;;;;11.60;63.16;98979.47;4488005;31;20652;-87
2022/09/21 01:11:08;;;;;;;7.32;2.72;;;;;;;11.83;62.53;98962.34;4473832;32;20104;-87
2022/09/21 01:13:43;;;;;;;9.27;3.20;;;;;;;11.88;62.39;98968.22;4487710;32;20253;-88
2022/09/21 01:16:15;;;;;;;7.43;2.58;;;;;;;11.78;62.56;98973.19;4487950;31;20087;-89
2022/09/21 01:18:47;;;;;;;7.65;2.60;;;;;;;11.68;63.01;98966.69;4486654;32;20172;-89
2022/09/21 01:21:25;;;;;;;7.30;2.80;;;;;;;11.97;62.01;98964.22;4473568;32;20109;-89
2022/09/21 01:24:15;;;;;;;8.30;2.97;;;;;;;12.12;61.41;98970.41;4487863;31;20114;-87
2022/09/21 01:27:26;;;;;;;8.35;2.55;;;;;;;12.16;61.35;98961.38;4487748;31;20089;-89
2022/09/21 01:29:55;;;;;;;7.45;2.60;;;;;;;12.20;61.37;98960.25;4486572;32;20183;-89
2022/09/21 01:32:37;;;;;;;8.15;2.53;;;;;;;11.92;61.70;98959.22;4487787;31;20104;-89
2022/09/21 01:35:11;;;;;;;8.20;2.72;;;;;;;12.16;61.39;98956.09;4486497;32;20100;-89
2022/09/21 01:37:59;;;;;;;8.20;2.72;;;;;;;12.08;61.41;98967.09;4486660;32;20167;-88
2022/09/21 01:40:37;;;;;;;7.55;2.50;;;;;;;11.71;62.21;98974.44;4481408;32;20107;-89
2022/09/21 01:43:04;;;;;;;7.62;2.47;;;;;;;11.93;61.19;98974.09;4486566;32;20361;-88
2022/09/21 01:45:34;;;;;;;6.83;2.60;;;;;;;11.77;61.56;98970.63;4473458;32;20126;-88
2022/09/21 01:48:00;;;;;;;7.32;2.80;;;;;;;11.74;61.78;98974.28;4487664;31;20084;-87
2022/09/21 01:50:30;;;;;;;7.57;2.40;;;;;;;11.84;61.66;98979.91;4488006;31;20100;-89
2022/09/21 01:53:11;;;;;;;7.43;2.72;;;;;;;11.74;62.19;98976.06;4487850;31;20093;-89
2022/09/21 01:55:59;;;;;;;7.10;2.50;;;;;;;11.76;61.57;98976.81;4487754;31;20544;-89
2022/09/21 01:58:43;;;;;;;6.40;2.37;;;;;;;11.83;61.73;98980.81;4475312;32;20100;-89
2022/09/21 02:01:11;;;;;;;8.27;3.05;;;;;;;11.81;61.77;98978.25;4486416;32;20092;-88
2022/09/21 02:03:50;;;;;;;7.90;2.65;;;;;;;11.45;62.95;98978.53;4473172;32;20143;-88
2022/09/21 02:06:16;;;;;;;7.37;2.65;;;;;;;11.75;62.15;98973.34;4487684;31;20088;-89
2022/09/21 02:08:43;;;;;;;6.85;2.50;;;;;;;11.51;62.74;98972.94;4486368;32;20143;-88
2022/09/21 02:11:11;;;;;;;6.37;2.35;;;;;;;11.91;61.74;98977.78;4487531;31;20110;-89
2022/09/21 02:13:40;;;;;;;6.57;2.45;;;;;;;12.05;61.37;98980.47;4485884;32;20104;-88
2022/09/21 02:16:05;;;;;;;7.95;2.97;;;;;;;12.00;61.08;98983.38;4486459;32;20104;-88
2022/09/21 02:18:57;;;;;;;7.70;2.78;;;;;;;11.74;61.86;98990.13;4486304;32;20110;-89
2022/09/21 02:21:24;;;;;;;8.73;2.78;;;;;;;11.55;62.92;98990.28;4486338;32;20352;-87
2022/09/21 02:24:28;;;;;;;11.00;3.17;;;;;;;11.81;62.06;98982.69;4486290;32;20131;-87
2022/09/21 02:26:56;;;;;;;7.78;2.92;;;;;;;11.76;62.54;98995.28;4485915;32;20129;-87
2022/09/21 02:29:32;;;;;;;8.25;2.90;;;;;;;11.51;63.58;98998.44;4487433;31;20481;-87
2022/09/21 02:31:57;;;;;;;10.15;2.97;;;;;;;11.77;62.60;98995.22;4486309;32;20068;-87
2022/09/21 02:34:46;;;;;;;9.07;2.80;;;;;;;11.88;62.20;98997.25;4487309;31;20118;-87
2022/09/21 02:37:23;;;;;;;7.90;2.87;;;;;;;11.86;62.11;98985.94;4486290;32;20177;-87
2022/09/21 02:40:03;;;;;;;7.70;2.40;;;;;;;12.17;61.13;98981.59;4486296;32;20468;-87
2022/09/21 02:42:32;;;;;;;7.18;2.70;;;;;;;11.83;nan;98985.25;4486259;32;20102;-88
2022/09/21 02:45:08;;;;;;;8.68;2.90;;;;;;;11.99;61.72;98980.81;4486058;32;20157;-88
2022/09/21 02:47:49;;;;;;;7.37;2.75;;;;;;;11.74;62.43;98979.56;4487398;31;20191;-88
2022/09/21 02:50:22;;;;;;;9.02;2.67;;;;;;;11.85;61.84;98992.16;4486123;32;20434;-88
2022/09/21 02:52:49;;;;;;;6.75;2.50;;;;;;;11.95;61.09;98987.22;4486099;32;20110;-89
2022/09/21 02:55:16;;;;;;;7.18;2.47;;;;;;;11.75;61.79;98988.34;4486097;32;20097;-88
2022/09/21 02:57:42;;;;;;;8.65;2.62;;;;;;;11.86;60.96;98993.84;4486080;32;20092;-89
2022/09/21 03:00:08;;;;;;;7.15;2.40;;;;;;;11.81;61.07;98995.91;4486203;32;20113;-87
2022/09/21 03:02:42;;;;;;;6.93;2.60;;;;;;;12.18;59.55;98994.66;4485921;32;20114;-88
2022/09/21 03:05:08;;;;;;;6.43;2.35;;;;;;;12.12;59.56;99000.31;4487511;31;20384;-88
2022/09/21 03:07:34;;;;;;;7.15;2.33;;;;;;;12.13;59.89;99003.78;4486260;32;20100;-88
2022/09/21 03:09:59;;;;;;;6.82;2.67;;;;;;;12.13;59.91;99003.78;4487529;31;20114;-88
2022/09/21 03:12:25;;;;;;;8.10;2.60;;;;;;;11.90;60.69;99007.75;4486136;32;20080;-89
2022/09/21 03:14:51;;;;;;;7.45;2.45;;;;;;;12.15;60.47;99012.50;4487181;31;20123;-90
2022/09/21 03:17:17;;;;;;;7.65;2.50;;;;;;;12.21;60.15;99014.78;4486293;32;20229;-88
2022/09/21 03:19:42;;;;;;;7.37;2.60;;;;;;;12.12;60.48;99021.44;4487445;31;20344;-87
2022/09/21 03:22:08;;;;;;;8.68;2.60;;;;;;;11.97;60.91;99014.38;4487206;31;20138;-88
2022/09/21 03:24:45;;;;;;;8.18;2.62;;;;;;;12.07;60.27;99014.72;4486640;31;20440;-89
2022/09/21 03:27:19;;;;;;;7.55;2.60;;;;;;;11.78;60.98;99014.53;4486338;32;20114;-88
2022/09/21 03:29:44;;;;;;;7.78;2.80;;;;;;;11.45;62.53;99026.00;4487135;31;20080;-88
2022/09/21 03:32:10;;;;;;;6.70;2.65;;;;;;;11.57;61.61;99014.81;4485799;32;20080;-88
2022/09/21 03:34:35;;;;;;;6.53;2.37;;;;;;;11.43;61.90;99019.13;4486943;31;20129;-88
2022/09/21 03:37:03;;;;;;;7.78;2.92;;;;;;;11.79;60.52;99021.53;4485737;32;20122;-88
2022/09/21 03:39:28;;;;;;;9.00;2.80;;;;;;;11.00;62.65;99025.75;4486081;32;20502;-88
2022/09/21 03:41:56;;;;;;;10.55;2.80;;;;;;;11.25;62.11;99027.09;4485743;32;20106;-88
2022/09/21 03:44:25;;;;;;;8.32;2.95;;;;;;;11.51;61.13;99027.47;4486819;31;20096;-86
2022/09/21 03:46:51;;;;;;;7.37;2.62;;;;;;;11.43;61.53;99025.25;4486913;31;20092;-87
2022/09/21 03:49:17;;;;;;;8.05;2.87;;;;;;;11.10;62.41;99023.47;4486780;31;20451;-88
2022/09/21 03:51:42;;;;;;;7.28;2.75;;;;;;;10.80;63.47;99031.22;4486808;31;20114;-87
2022/09/21 03:54:08;;;;;;;7.70;2.78;;;;;;;10.93;63.18;99026.16;4485537;32;20165;-88
2022/09/21 03:56:33;;;;;;;8.18;2.97;;;;;;;10.88;63.63;99036.09;4485553;32;20126;-88
2022/09/21 03:58:59;;;;;;;7.40;2.92;;;;;;;10.87;63.35;99037.03;4486827;31;20131;-87
2022/09/21 04:01:24;;;;;;;8.43;2.80;;;;;;;10.98;62.79;99032.87;4472437;32;20111;-87
2022/09/21 04:03:50;;;;;;;8.52;3.22;;;;;;;10.78;63.17;99038.38;4486574;31;20520;-88
2022/09/21 04:06:15;;;;;;;8.20;2.70;;;;;;;10.73;63.61;99043.84;4485594;32;20376;-88
2022/09/21 04:08:41;;;;;;;8.10;2.85;;;;;;;11.26;62.01;99049.03;4486596;31;20122;-88
2022/09/21 04:11:13;;;;;;;9.18;3.00;;;;;;;10.49;64.14;99043.31;4472509;32;20084;-89
2022/09/21 04:13:41;;;;;;;9.00;2.85;;;;;;;10.75;63.67;99047.25;4486656;31;20367;-89
2022/09/21 04:16:06;;;;;;;8.27;2.80;;;;;;;11.11;62.43;99038.38;4486858;31;20097;-89
2022/09/21 04:18:32;;;;;;;7.00;2.70;;;;;;;11.33;61.45;99035.44;4486772;32;20088;-87
2022/09/21 04:20:58;;;;;;;7.82;2.78;;;;;;;11.43;61.27;99040.22;4485207;32;20085;-88
2022/09/21 04:23:23;;;;;;;8.43;2.92;;;;;;;11.63;60.66;99033.84;4486434;31;20131;-87
2022/09/21 04:25:51;;;;;;;7.80;2.85;;;;;;;11.90;60.02;99035.03;4485241;32;20168;-87
2022/09/21 04:28:17;;;;;;;8.52;2.80;;;;;;;11.58;60.51;99040.25;4480007;31;20143;-87
2022/09/21 04:30:43;;;;;;;6.95;2.47;;;;;;;11.71;60.24;99034.31;4486347;32;20076;-87
2022/09/21 04:33:08;;;;;;;8.15;2.80;;;;;;;11.81;59.50;99035.50;4486148;32;20529;-87
2022/09/21 04:35:34;;;;;;;6.90;2.50;;;;;;;11.71;59.51;99040.44;4486955;32;20145;-87
2022/09/21 04:37:59;;;;;;;7.40;2.70;;;;;;;11.66;59.62;99039.81;4485705;32;20129;-86
2022/09/21 04:40:24;;;;;;;8.15;2.58;;;;;;;11.32;60.83;99049.59;4458289;32;20103;-87
2022/09/21 04:42:52;;;;;;;8.75;2.95;;;;;;;11.59;60.32;99049.88;4472523;32;20143;-87
2022/09/21 04:45:18;;;;;;;7.40;2.60;;;;;;;11.82;59.71;99047.78;4472484;32;20100;-87
2022/09/21 04:47:44;;;;;;;7.78;2.92;;;;;;;12.04;59.22;99058.00;4472356;32;20163;-87
2022/09/21 04:50:09;;;;;;;7.50;2.42;;;;;;;12.24;58.56;99066.59;4472493;32;20405;-85
2022/09/21 04:52:35;;;;;;;7.65;2.72;;;;;;;11.67;60.13;99067.94;4468869;32;20507;-85
2022/09/21 04:55:01;;;;;;;8.68;3.00;;;;;;;11.58;60.78;99065.78;4478289;32;20113;-82
2022/09/21 04:57:26;;;;;;;9.20;2.83;;;;;;;11.19;61.85;99075.75;4484845;31;20084;-86
2022/09/21 04:59:51;;;;;;;7.32;2.47;;;;;;;11.39;61.11;99069.41;4469525;32;20154;-89
2022/09/21 05:02:17;;;;;;;8.43;2.60;;;;;;;11.41;61.43;99074.59;4484764;31;20096;-84
2022/09/21 05:04:42;;;;;;;7.12;2.58;;;;;;;11.23;62.28;99073.81;4484911;32;20423;-88
2022/09/21 05:07:08;;;;;;;7.85;2.55;;;;;;;11.41;62.13;99072.84;4485665;31;20176;-88
2022/09/21 05:12:17;;;;;;;6.82;2.50;;;;;;;11.95;60.42;99058.50;4476568;32;20580;-92
2022/09/21 05:14:43;;;;;;;8.13;2.47;;;;;;;12.15;59.85;99062.69;4470400;32;20104;-83
2022/09/21 05:17:10;;;;;;;6.62;2.25;;;;;;;11.71;60.36;99063.34;4483037;32;20108;-89
2022/09/21 05:19:35;;;;;;;7.35;2.65;;;;;;;11.97;59.50;99069.84;4485368;31;20144;-89
2022/09/21 05:22:01;;;;;;;8.43;2.90;;;;;;;12.13;58.63;99078.63;4484993;32;20104;-91
2022/09/21 05:24:26;;;;;;;8.38;2.95;;;;;;;12.23;58.98;99078.94;4484159;32;20100;-89
2022/09/21 05:26:51;;;;;;;7.87;3.03;;;;;;;12.05;59.77;99070.25;4485639;31;20114;-89
2022/09/21 05:29:17;;;;;;;8.55;2.87;;;;;;;11.73;61.09;99077.31;4474753;32;20133;-91
2022/09/21 05:32:02;;;;;;;7.60;2.83;;;;;;;12.09;59.99;99076.22;4480819;32;20120;-87
2022/09/21 05:34:34;;;;;;;7.82;2.85;;;;;;;11.70;61.29;99082.72;4471185;32;20126;-87
2022/09/21 05:37:02;;;;;;;7.93;2.42;;;;;;;12.15;60.24;99075.91;4485398;32;20100;-87
2022/09/21 05:39:28;;;;;;;7.68;2.87;;;;;;;12.09;59.75;99078.84;4485418;32;20481;-86
2022/09/21 05:41:54;;;;;;;7.30;2.67;;;;;;;12.14;59.74;99076.81;4484962;32;20585;-86
2022/09/21 05:44:20;;;;;;;8.05;2.92;;;;;;;12.18;59.14;99075.69;4471177;32;20111;-85
2022/09/21 05:46:57;;;;;;;7.60;2.47;;;;;;;12.20;59.19;99076.47;4485315;31;20100;-87
2022/09/21 05:49:32;;;;;;;6.95;2.20;;;;;;;12.19;59.10;99074.78;4484693;31;20111;-86
2022/09/21 05:52:25;;;;;;;7.28;2.45;;;;;;;12.57;57.42;99074.34;4484929;32;20113;-83
2022/09/21 05:55:28;;;;;;;7.93;2.65;;;;;;;13.02;55.96;99074.38;4421802;32;20487;-83
2022/09/21 05:57:59;;;;;;;9.18;3.20;;;;;;;13.05;56.57;99084.78;4420477;32;20098;-83
2022/09/21 06:00:25;;;;;;;9.05;2.75;;;;;;;13.00;56.93;99085.06;4422686;32;20506;-83
2022/09/21 06:03:02;;;;;;;7.80;3.17;;;;;;;12.94;57.79;99082.75;4420570;32;20226;-80
2022/09/21 06:05:28;;;;;;;8.60;3.05;;;;;;;12.71;58.52;99071.75;4431291;32;20109;-84
2022/09/21 06:07:53;;;;;;;8.65;3.05;;;;;;;13.01;57.43;99076.16;4409373;32;20207;-84
2022/09/21 06:10:18;;;;;;;7.45;2.75;;;;;;;12.91;57.47;99082.94;4437398;32;20164;-85
2022/09/21 06:12:44;;;;;;;8.93;2.72;;;;;;;12.99;57.16;99086.00;4438553;32;20147;-83
2022/09/21 06:15:13;;;;;;;9.80;3.50;;;;;;;12.62;58.59;99088.16;4438436;32;20136;-85
2022/09/21 06:17:39;;;;;;;9.85;3.53;;;;;;;12.37;59.36;99096.66;4424364;32;20140;-84
2022/09/21 06:20:06;;;;;;;10.30;3.95;;;;;;;12.53;59.29;99094.81;4422312;32;20548;-81
2022/09/21 06:22:32;;;;;;;9.23;3.20;;;;;;;12.23;60.62;99097.44;4408097;32;20106;-83
2022/09/21 06:24:57;;;;;;;10.50;3.33;;;;;;;12.07;61.42;99099.22;4422938;32;20441;-82
2022/09/21 06:27:22;;;;;;;9.20;3.17;;;;;;;12.45;60.29;99093.56;4422854;32;20364;-81
2022/09/21 06:29:48;;;;;;;9.40;3.20;;;;;;;12.53;60.37;99099.25;4410487;32;20188;-81
2022/09/21 06:32:13;;;;;;;8.63;3.00;;;;;;;12.29;60.44;99106.81;4452946;32;20104;-82
2022/09/21 06:34:38;;;;;;;7.37;2.60;;;;;;;12.73;58.81;99098.12;4471685;32;20096;-84
2022/09/21 06:37:04;;;;;;;7.10;2.60;;;;;;;12.75;58.31;99104.16;4471788;32;20428;-83
2022/09/21 06:39:29;;;;;;;7.00;3.00;;;;;;;13.10;57.26;99099.44;4471112;32;20133;-83
2022/09/21 06:41:55;;;;;;;7.90;2.83;;;;;;;13.10;57.59;99099.44;4470593;32;20273;-83
2022/09/21 06:44:20;;;;;;;8.25;2.90;;;;;;;12.55;59.75;99108.78;4456407;32;20500;-83
2022/09/21 06:46:46;;;;;;;8.60;3.00;;;;;;;13.01;58.99;99109.69;4470478;32;20136;-83
2022/09/21 06:49:11;;;;;;;8.00;3.10;;;;;;;13.33;57.37;99111.28;4443694;32;20100;-83
2022/09/21 06:51:36;;;;;;;11.18;3.33;;;;;;;13.20;58.54;99109.47;4470528;32;20093;-83
2022/09/21 06:54:02;;;;;;;9.45;3.45;;;;;;;13.27;57.87;99111.66;4456712;32;20105;-83
2022/09/21 06:56:27;;;;;;;9.70;3.33;;;;;;;13.57;57.17;99103.63;4457428;32;20092;-83
2022/09/21 06:58:54;;;;;;;9.95;4.10;;;;;;;13.44;57.62;99118.56;4456203;32;20084;-83
2022/09/21 07:01:20;;;;;;;9.73;3.60;;;;;;;13.50;57.65;99112.91;4471578;32;20131;-83
2022/09/21 07:03:48;;;;;;;8.95;3.35;;;;;;;13.75;56.11;99112.25;4471499;32;20096;-83
2022/09/21 07:06:14;;;;;;;7.57;2.80;;;;;;;13.64;56.70;99101.47;4457300;32;20151;-83
2022/09/21 07:08:41;;;;;;;7.78;2.72;;;;;;;13.72;55.47;99109.78;4471429;32;20110;-83
2022/09/21 07:11:06;;;;;;;8.63;2.80;;;;;;;13.95;55.70;99110.16;4457423;32;20121;-83
2022/09/21 07:13:32;;;;;;;7.93;2.80;;;;;;;14.02;55.80;99118.53;4471288;32;20424;-83
2022/09/21 07:16:03;;;;;;;7.30;2.70;;;;;;;13.99;55.57;99114.28;4471431;32;20093;-83
2022/09/21 07:18:28;;;;;;;8.57;3.05;;;;;;;14.32;53.78;99119.22;4457439;32;20801;-83
2022/09/21 07:20:54;;;;;;;8.63;3.10;;;;;;;14.56;54.21;99121.22;4471417;32;20123;-84
2022/09/21 07:23:21;;;;;;;9.00;3.12;;;;;;;14.44;54.70;99122.88;4471249;32;20104;-83
2022/09/21 07:25:49;;;;;;;7.67;3.17;;;;;;;14.62;55.22;99115.56;4471360;32;20133;-83
2022/09/21 07:28:15;;;;;;;7.45;2.65;;;;;;;14.69;54.33;99119.50;4457655;32;20088;-83
2022/09/21 07:30:40;;;;;;;7.93;2.70;;;;;;;14.77;53.78;99120.81;4471593;32;20080;-83
2022/09/21 07:33:06;;;;;;;6.07;2.62;;;;;;;14.66;54.10;99125.03;4457397;32;20190;-83
2022/09/21 07:35:32;;;;;;;7.15;2.75;;;;;;;14.32;54.25;99129.81;4471552;32;20141;-83
2022/09/21 07:37:58;;;;;;;7.18;2.42;;;;;;;14.53;53.53;99118.78;4457285;32;20345;-83
2022/09/21 07:40:23;;;;;;;8.48;2.90;;;;;;;14.51;53.86;99124.19;4457255;32;20109;-83
2022/09/21 07:42:48;;;;;;;8.95;2.87;;;;;;;15.14;52.17;99121.81;4471256;32;20368;-83
2022/09/21 07:45:14;;;;;;;7.93;2.75;;;;;;;15.03;53.50;99122.56;4471179;32;20116;-83
2022/09/21 07:47:39;;;;;;;7.90;3.10;;;;;;;15.20;52.41;99123.19;4471207;32;20107;-83
2022/09/21 07:50:05;;;;;;;7.25;2.65;;;;;;;15.46;51.27;99121.41;4471187;32;20395;-83
2022/09/21 07:52:31;;;;;;;8.23;2.55;;;;;;;15.37;51.67;99125.53;4471528;32;20456;-83
2022/09/21 07:54:56;;;;;;;8.60;3.00;;;;;;;15.31;52.42;99123.31;4457151;32;20107;-83
2022/09/21 08:00:06;;;;;;;10.73;3.00;;;;;;;15.10;53.13;99125.63;4471093;32;20161;-83
2022/09/21 08:02:32;;;;;;;7.70;2.72;;;;;;;15.25;52.91;99129.91;4471095;32;20464;-83
2022/09/21 08:04:57;;;;;;;8.82;3.17;;;;;;;15.29;52.16;99120.75;4471028;32;20076;-82
2022/09/21 08:07:23;;;;;;;7.45;3.08;;;;;;;15.12;53.21;99129.03;4470875;32;20103;-83
2022/09/21 08:09:49;;;;;;;10.23;3.17;;;;;;;15.78;51.39;99121.00;4456563;32;20419;-83
2022/09/21 08:12:17;;;;;;;9.13;3.10;;;;;;;15.44;51.69;99124.19;4469843;32;20153;-83
2022/09/21 08:14:42;;;;;;;;;;;;;;;15.47;51.10;99129.28;4456655;32;20208;-83
2022/09/21 08:17:08;;;;;;;7.97;2.85;;;;;;;15.32;52.22;99135.66;4470931;32;19981;-83
2022/09/21 08:19:35;;;;;;;7.07;2.60;;;;;;;15.17;53.13;99126.91;4456774;32;20124;-83
2022/09/21 08:22:01;;;;;;;7.30;2.70;;;;;;;15.37;52.45;99122.88;4470712;32;20463;-83
2022/09/21 08:24:26;;;;;;;6.93;2.62;;;;;;;15.63;50.79;99128.22;4470682;32;20087;-83
2022/09/21 08:26:51;;;;;;;7.35;2.40;;;;;;;15.74;51.15;99123.00;4470805;32;20103;-83
2022/09/21 08:29:17;;;;;;;7.37;2.65;;;;;;;15.75;51.32;99131.84;4456570;32;20151;-83
2022/09/21 08:31:43;;;;;;;6.22;2.58;;;;;;;15.85;50.85;99125.75;4456379;32;20365;-83
2022/09/21 08:34:08;;;;;;;7.07;2.30;;;;;;;15.60;51.07;99131.06;4470485;32;20103;-83
2022/09/21 08:36:34;;;;;;;8.27;2.40;;;;;;;16.06;49.50;99126.03;4470199;32;20081;-83
2022/09/21 08:38:59;;;;;;;8.50;2.25;;;;;;;15.45;49.82;99130.31;4470509;32;20356;-83
2022/09/21 08:41:34;;;;;;;5.32;2.00;;;;;;;15.59;49.67;99146.16;4470569;32;20089;-83
2022/09/21 08:44:04;;;;;;;7.30;2.17;;;;;;;15.56;50.33;99135.75;4456378;32;20106;-83
2022/09/21 08:46:31;;;;;;;11.27;2.67;;;;;;;15.75;50.37;99138.00;4456353;32;20451;-83
2022/09/21 08:49:02;;;;;;;7.32;2.33;;;;;;;16.12;48.53;99146.00;4456154;32;20448;-83
2022/09/21 08:51:31;;;;;;;6.37;2.53;;;;;;;15.69;50.19;99146.38;4456464;32;20131;-83
2022/09/21 08:54:01;;;;;;;7.18;2.40;;;;;;;15.41;51.28;99142.97;4456182;32;20398;-84
2022/09/21 08:56:26;;;;;;;8.30;2.42;;;;;;;15.50;51.20;99149.47;4443620;32;20493;-83
2022/09/21 08:58:52;;;;;;;5.93;2.00;;;;;;;15.69;49.92;99143.72;4470562;32;20096;-83
2022/09/21 09:01:30;;;;;;;5.18;2.10;;;;;;;15.45;50.66;99144.47;4456061;32;20437;-83
2022/09/21 09:04:33;;;;;;;7.83;2.47;;;;;;;15.51;50.30;99144.03;4470275;32;20103;-83
2022/09/21 09:07:43;;;;;;;7.20;2.20;;;;;;;15.89;50.37;99142.34;4456077;32;20107;-83
2022/09/21 09:10:38;;;;;;;8.75;2.30;;;;;;;16.01;50.31;99143.25;4406307;32;20149;-83
2022/09/21 09:13:12;;;;;;;7.47;2.60;;;;;;;15.79;50.89;99150.09;4406230;32;20272;-83
2022/09/21 09:15:37;;;;;;;5.93;2.10;;;;;;;15.78;50.22;99143.12;4406171;32;20123;-83
2022/09/21 09:18:16;;;;;;;6.12;2.22;;;;;;;15.70;50.75;99142.75;4406203;32;20086;-83
2022/09/21 09:20:47;;;;;;;6.80;2.58;;;;;;;16.07;49.92;99143.69;4406322;32;20173;-83
2022/09/21 09:23:22;;;;;;;5.32;2.20;;;;;;;16.14;49.21;99143.25;4408325;32;20124;-82
2022/09/21 09:25:52;;;;;;;5.53;1.85;;;;;;;15.79;50.08;99149.25;4408355;32;20082;-83
2022/09/21 09:28:40;;;;;;;5.95;2.10;;;;;;;15.44;50.30;99144.56;4408345;32;20112;-83
2022/09/21 09:31:13;;;;;;;6.97;2.30;;;;;;;15.18;51.56;99138.38;4408492;32;20106;-83
2022/09/21 09:33:56;;;;;;;7.55;2.05;;;;;;;15.64;49.80;99141.38;4408203;32;20243;-83
2022/09/21 09:36:26;;;;;;;6.62;2.30;;;;;;;15.58;50.02;99139.16;4408319;32;20150;-83
2022/09/21 09:38:57;;;;;;;7.85;2.15;;;;;;;15.10;51.00;99142.44;4408177;32;20102;-83
2022/09/21 09:41:44;;;;;;;7.78;2.25;;;;;;;15.03;52.29;99149.09;4408346;32;20095;-83
2022/09/21 09:44:18;;;;;;;6.87;2.45;;;;;;;15.10;51.88;99152.16;4408309;32;20140;-83
2022/09/21 09:47:02;;;;;;;7.45;2.20;;;;;;;15.37;51.34;99144.12;4426594;32;20085;-83
2022/09/21 09:49:43;;;;;;;8.10;2.33;;;;;;;15.63;50.17;99138.84;4427056;32;20238;-83
2022/09/21 09:52:11;;;;;;;5.93;2.30;;;;;;;15.52;51.00;99143.06;4440995;32;20147;-83
2022/09/21 09:54:36;;;;;;;7.05;2.30;;;;;;;15.67;50.67;99138.50;4439781;32;20097;-83
2022/09/21 09:57:03;;;;;;;7.45;2.37;;;;;;;15.67;51.10;99143.81;4440888;32;20085;-83
2022/09/21 09:59:47;;;;;;;7.10;2.28;;;;;;;15.62;51.31;99142.44;4439868;32;20169;-83
2022/09/21 10:02:26;;;;;;;6.97;2.20;;;;;;;15.54;51.27;99142.97;4439772;32;20105;-83
2022/09/21 10:04:59;;;;;;;7.05;2.67;;;;;;;15.48;50.27;99146.91;4439858;32;20167;-83
2022/09/21 10:07:37;;;;;;;7.47;2.42;;;;;;;15.32;51.13;99146.28;4440971;32;20469;-83
2022/09/21 10:10:20;;;;;;;6.18;1.75;;;;;;;15.73;49.81;99129.28;4440936;32;20074;-83
2022/09/21 10:12:46;;;;;;;5.78;2.00;;;;;;;15.82;51.28;99141.94;4440997;32;20085;-83
2022/09/21 10:15:12;;;;;;;5.70;2.00;;;;;;;16.22;49.04;99133.75;4449729;32;20372;-83
2022/09/21 10:17:38;;;;;;;6.90;2.10;;;;;;;15.84;50.15;99142.69;4456315;32;20081;-83
2022/09/21 10:20:05;;;;;;;6.53;2.00;;;;;;;15.92;49.47;99134.16;4455197;32;20085;-83
2022/09/21 10:22:30;;;;;;;7.82;2.28;;;;;;;16.00;49.76;99136.28;4455107;32;20131;-83
2022/09/21 10:24:58;;;;;;;7.12;2.28;;;;;;;16.50;48.50;99123.78;4456267;32;20396;-83
2022/09/21 10:27:28;;;;;;;6.32;2.10;;;;;;;16.03;49.43;99128.06;4456344;32;20472;-83
2022/09/21 10:29:54;;;;;;;7.97;2.22;;;;;;;16.21;49.25;99123.25;4455117;32;20099;-83
2022/09/21 10:32:26;;;;;;;9.07;2.17;;;;;;;16.41;48.64;99121.78;4455046;32;20127;-83
2022/09/21 10:35:06;;;;;;;6.28;3.28;;;;;;;15.86;49.91;99121.31;4454979;32;20105;-83
2022/09/21 10:37:33;;;;;;;7.32;2.45;;;;;;;16.59;48.58;99109.81;4456325;32;20112;-83
2022/09/21 10:40:00;;;;;;;5.70;1.83;;;;;;;16.67;47.67;99118.06;4456103;32;20384;-82
2022/09/21 10:42:34;;;;;;;5.25;1.90;;;;;;;16.66;48.36;99111.03;4456277;32;20153;-83
2022/09/21 10:45:13;;;;;;;5.07;1.87;;;;;;;16.78;48.24;99109.25;4454969;32;20089;-83
2022/09/21 10:47:45;;;;;;;6.43;1.87;;;;;;;16.67;48.83;99110.06;4455121;32;20402;-83
2022/09/21 10:50:38;;;;;;;4.82;1.70;;;;;;;16.78;46.68;99122.56;4455051;32;20077;-82
2022/09/21 10:53:09;;;;;;;4.90;1.70;;;;;;;16.63;46.65;99113.94;4454982;32;20104;-83
2022/09/21 10:55:46;;;;;;;3.15;1.45;;;;;;;16.80;46.53;99104.66;4456107;32;20100;-83
2022/09/21 10:58:13;;;;;;;4.55;1.40;;;;;;;17.23;45.71;99108.56;4455171;32;20421;-83
2022/09/21 11:00:50;;;;;;;6.18;1.65;;;;;;;17.09;45.35;99104.31;4455095;32;20429;-83
2022/09/21 11:03:33;;;;;;;4.45;1.37;;;;;;;17.14;45.07;99117.28;4455137;32;20093;-83
2022/09/21 11:06:04;;;;;;;4.40;1.45;;;;;;;17.43;44.31;99101.72;4456029;32;20108;-83
2022/09/21 11:08:36;;;;;;;2.78;1.27;;;;;;;17.68;44.30;99097.97;4455978;32;20096;-82
2022/09/21 11:11:17;;;;;;;3.17;1.30;;;;;;;18.10;42.91;99092.88;4454797;32;20133;-83
2022/09/21 11:14:10;;;;;;;3.85;1.40;;;;;;;18.10;43.02;99103.53;4455989;32;20093;-83
2022/09/21 11:16:40;;;;;;;4.12;1.50;;;;;;;18.05;43.42;99100.38;4454856;32;20518;-83
2022/09/21 11:19:17;;;;;;;3.78;1.35;;;;;;;18.01;42.42;99091.78;4456031;32;20432;-83
2022/09/21 11:22:01;;;;;;;4.00;1.30;;;;;;;17.83;43.12;99096.75;4455032;32;20553;-82
2022/09/21 11:24:39;;;;;;;3.95;1.40;;;;;;;17.87;43.00;99095.56;4456189;32;20101;-83
2022/09/21 11:27:12;;;;;;;4.28;1.23;;;;;;;18.00;42.96;99083.91;4456007;32;20092;-83
2022/09/21 11:29:55;;;;;;;4.03;1.50;;;;;;;17.54;43.44;99091.06;4454711;32;20372;-83
2022/09/21 11:32:39;;;;;;;5.07;1.50;;;;;;;17.08;44.19;99094.63;4455943;32;20068;-82
2022/09/21 11:35:34;;;;;;;3.47;1.12;;;;;;;17.29;44.21;99086.81;4456061;32;20085;-82
2022/09/21 11:38:17;;;;;;;2.72;1.02;;;;;;;17.78;42.56;99084.75;4454722;32;20097;-83
2022/09/21 11:40:42;;;;;;;4.15;1.23;;;;;;;17.35;42.88;99086.31;4454973;32;20096;-83
2022/09/21 11:43:29;;;;;;;2.40;1.15;;;;;;;17.86;41.51;99072.53;4454418;32;20073;-82
2022/09/21 11:46:04;;;;;;;2.40;1.02;;;;;;;17.37;41.31;99079.06;4455432;32;20166;-82
2022/09/21 11:49:05;;;;;;;3.78;1.08;;;;;;;17.85;41.29;99070.03;4454517;32;20485;-83
2022/09/21 11:52:03;;;;;;;2.28;1.12;;;;;;;17.47;42.33;99068.53;4454633;32;20084;-82
2022/09/21 11:54:45;;;;;;;3.55;1.00;;;;;;;17.05;42.71;99076.22;4454419;32;20073;-83
2022/09/21 11:57:41;;;;;;;3.10;1.15;;;;;;;17.52;40.60;99070.81;4454508;32;20092;-83